createdAt,value
2018-07-10T00:00:46.948Z,21.27
2018-07-10T00:01:46.952Z,21.29
2018-07-10T00:02:46.956Z,21.27
2018-07-10T00:03:46.958Z,21.24
2018-07-10T00:04:46.965Z,21.24
2018-07-10T00:05:46.969Z,21.20
2018-07-10T00:06:46.968Z,21.12
2018-07-10T00:07:46.974Z,21.18
2018-07-10T00:08:46.976Z,21.14
2018-07-10T00:09:46.980Z,21.14
2018-07-10T00:10:46.985Z,21.05
2018-07-10T00:11:46.985Z,21.12
2018-07-10T00:12:46.991Z,21.12
2018-07-10T00:13:46.992Z,21.14
2018-07-10T00:14:46.995Z,21.14
2018-07-10T00:15:47.004Z,21.05
2018-07-10T00:16:47.005Z,21.12
2018-07-10T00:17:47.008Z,21.07
2018-07-10T00:18:47.009Z,20.95
2018-07-10T00:19:47.012Z,20.90
2018-07-10T00:20:47.015Z,20.88
2018-07-10T00:21:47.023Z,20.88
2018-07-10T00:22:47.024Z,20.81
2018-07-10T00:23:47.027Z,20.88
2018-07-10T00:24:47.028Z,20.85
2018-07-10T00:25:47.034Z,20.85
2018-07-10T00:26:47.074Z,20.87
2018-07-10T00:27:47.040Z,20.87
2018-07-10T00:28:47.045Z,20.82
2018-07-10T00:29:47.048Z,20.82
2018-07-10T00:30:47.458Z,20.77
2018-07-10T00:31:47.051Z,20.78
2018-07-10T00:32:47.055Z,20.75
2018-07-10T00:33:47.059Z,20.70
2018-07-10T00:34:47.061Z,20.72
2018-07-10T00:35:47.066Z,20.67
2018-07-10T00:36:47.067Z,20.62
2018-07-10T00:37:47.072Z,20.50
2018-07-10T00:38:47.075Z,20.47
2018-07-10T00:39:47.077Z,20.41
2018-07-10T00:40:47.081Z,20.41
2018-07-10T00:41:47.083Z,20.29
2018-07-10T00:42:47.086Z,20.22
2018-07-10T00:43:47.088Z,20.21
2018-07-10T00:44:47.091Z,20.18
2018-07-10T00:45:47.095Z,20.10
2018-07-10T00:46:47.097Z,20.03
2018-07-10T00:47:47.100Z,20.04
2018-07-10T00:48:47.104Z,19.96
2018-07-10T00:49:47.106Z,19.91
2018-07-10T00:50:47.111Z,19.86
2018-07-10T00:51:47.110Z,19.81
2018-07-10T00:52:47.116Z,19.79
2018-07-10T00:53:47.116Z,19.79
2018-07-10T00:54:47.118Z,19.66
2018-07-10T00:55:47.122Z,19.69
2018-07-10T00:56:47.133Z,19.64
2018-07-10T00:57:47.126Z,19.59
2018-07-10T00:58:47.130Z,19.56
2018-07-10T00:59:47.148Z,19.45
2018-07-10T01:00:47.140Z,19.47
2018-07-10T01:01:47.138Z,19.34
2018-07-10T01:02:47.138Z,19.34
2018-07-10T01:03:47.139Z,19.33
2018-07-10T01:04:47.143Z,19.34
2018-07-10T01:05:47.145Z,19.36
2018-07-10T01:06:47.146Z,19.31
2018-07-10T01:07:47.149Z,19.26
2018-07-10T01:08:47.155Z,19.31
2018-07-10T01:09:47.156Z,19.29
2018-07-10T01:10:47.157Z,19.19
2018-07-10T01:11:47.157Z,19.29
2018-07-10T01:12:47.159Z,19.11
2018-07-10T01:13:47.163Z,19.07
2018-07-10T01:14:47.164Z,19.11
2018-07-10T01:15:47.169Z,19.14
2018-07-10T01:16:47.168Z,19.08
2018-07-10T01:17:47.171Z,19.09
2018-07-10T01:18:47.202Z,19.11
2018-07-10T01:19:47.174Z,19.08
2018-07-10T01:20:47.179Z,18.96
2018-07-10T01:21:47.182Z,19.14
2018-07-10T01:22:47.183Z,19.08
2018-07-10T01:23:47.188Z,19.00
2018-07-10T01:24:47.186Z,19.11
2018-07-10T01:25:47.188Z,19.14
2018-07-10T01:26:47.195Z,19.07
2018-07-10T01:27:47.192Z,19.00
2018-07-10T01:28:47.197Z,19.08
2018-07-10T01:29:47.196Z,18.92
2018-07-10T01:30:47.200Z,18.96
2018-07-10T01:31:47.201Z,18.96
2018-07-10T01:32:47.204Z,18.90
2018-07-10T01:33:47.214Z,18.95
2018-07-10T01:34:47.204Z,18.88
2018-07-10T01:35:47.207Z,18.99
2018-07-10T01:36:47.209Z,18.92
2018-07-10T01:37:47.210Z,18.88
2018-07-10T01:38:47.213Z,18.92
2018-07-10T01:39:47.215Z,18.83
2018-07-10T01:40:47.219Z,18.90
2018-07-10T01:41:47.225Z,18.88
2018-07-10T01:42:47.223Z,18.84
2018-07-10T01:43:47.221Z,18.81
2018-07-10T01:44:47.228Z,18.74
2018-07-10T01:45:47.228Z,18.75
2018-07-10T01:46:47.228Z,18.71
2018-07-10T01:47:47.230Z,18.71
2018-07-10T01:48:47.236Z,18.74
2018-07-10T01:49:47.233Z,18.59
2018-07-10T01:50:47.236Z,18.62
2018-07-10T01:51:47.235Z,18.55
2018-07-10T01:52:47.241Z,18.55
2018-07-10T01:53:47.248Z,18.58
2018-07-10T01:54:47.241Z,18.50
2018-07-10T01:55:47.242Z,18.53
2018-07-10T01:56:47.245Z,18.55
2018-07-10T01:57:47.250Z,18.47
2018-07-10T01:58:47.248Z,18.53
2018-07-10T01:59:47.251Z,18.53
2018-07-10T02:00:47.252Z,18.52
2018-07-10T02:01:47.253Z,18.55
2018-07-10T02:02:47.259Z,18.45
2018-07-10T02:03:47.257Z,18.52
2018-07-10T02:04:47.258Z,18.43
2018-07-10T02:05:47.260Z,18.45
2018-07-10T02:06:47.262Z,18.41
2018-07-10T02:07:47.262Z,18.37
2018-07-10T02:08:47.266Z,18.41
2018-07-10T02:09:47.267Z,18.34
2018-07-10T02:10:47.269Z,18.41
2018-07-10T02:11:47.271Z,18.35
2018-07-10T02:12:47.276Z,18.40
2018-07-10T02:13:47.273Z,18.40
2018-07-10T02:14:47.274Z,18.35
2018-07-10T02:15:47.278Z,18.50
2018-07-10T02:16:47.279Z,18.47
2018-07-10T02:17:47.281Z,18.50
2018-07-10T02:18:47.282Z,18.56
2018-07-10T02:19:47.281Z,18.53
2018-07-10T02:20:47.291Z,18.53
2018-07-10T02:21:47.290Z,18.49
2018-07-10T02:22:47.297Z,18.49
2018-07-10T02:23:47.290Z,18.52
2018-07-10T02:24:47.294Z,18.47
2018-07-10T02:25:47.315Z,18.41
2018-07-10T02:26:47.293Z,18.41
2018-07-10T02:27:47.294Z,18.33
2018-07-10T02:28:47.294Z,18.33
2018-07-10T02:29:47.301Z,18.33
2018-07-10T02:30:47.308Z,18.29
2018-07-10T02:31:47.300Z,18.23
2018-07-10T02:32:47.307Z,18.23
2018-07-10T02:33:47.312Z,18.26
2018-07-10T02:34:47.309Z,18.26
2018-07-10T02:35:47.315Z,18.25
2018-07-10T02:36:47.307Z,18.25
2018-07-10T02:37:47.309Z,18.31
2018-07-10T02:38:47.314Z,18.26
2018-07-10T02:39:47.313Z,18.35
2018-07-10T02:40:47.317Z,18.37
2018-07-10T02:41:47.318Z,18.37
2018-07-10T02:42:47.320Z,18.41
2018-07-10T02:43:47.324Z,18.41
2018-07-10T02:44:47.326Z,18.40
2018-07-10T02:45:47.323Z,18.31
2018-07-10T02:46:47.323Z,18.38
2018-07-10T02:47:47.334Z,18.40
2018-07-10T02:48:47.325Z,18.38
2018-07-10T02:49:47.327Z,18.38
2018-07-10T02:50:47.329Z,18.37
2018-07-10T02:51:47.331Z,18.38
2018-07-10T02:52:47.331Z,18.41
2018-07-10T02:53:47.341Z,18.37
2018-07-10T02:54:47.335Z,18.38
2018-07-10T02:55:47.338Z,18.41
2018-07-10T02:56:47.339Z,18.35
2018-07-10T02:57:47.341Z,18.33
2018-07-10T02:58:47.343Z,18.34
2018-07-10T02:59:47.343Z,18.31
2018-07-10T03:00:47.349Z,18.37
2018-07-10T03:01:47.347Z,18.31
2018-07-10T03:02:47.349Z,18.41
2018-07-10T03:03:47.349Z,18.37
2018-07-10T03:04:47.358Z,18.37
2018-07-10T03:05:47.353Z,18.33
2018-07-10T03:06:47.355Z,18.31
2018-07-10T03:07:47.356Z,18.33
2018-07-10T03:08:47.358Z,18.35
2018-07-10T03:09:47.361Z,18.34
2018-07-10T03:10:47.372Z,18.38
2018-07-10T03:11:47.365Z,18.40
2018-07-10T03:12:47.364Z,18.38
2018-07-10T03:13:47.366Z,18.37
2018-07-10T03:14:47.368Z,18.38
2018-07-10T03:15:47.371Z,18.38
2018-07-10T03:16:47.372Z,18.38
2018-07-10T03:17:47.374Z,18.38
2018-07-10T03:18:47.375Z,18.35
2018-07-10T03:19:47.382Z,18.41
2018-07-10T03:20:47.388Z,18.38
2018-07-10T03:21:47.382Z,18.38
2018-07-10T03:22:47.383Z,18.40
2018-07-10T03:23:47.389Z,18.40
2018-07-10T03:24:47.388Z,18.41
2018-07-10T03:25:47.388Z,18.44
2018-07-10T03:26:47.391Z,18.44
2018-07-10T03:27:47.393Z,18.45
2018-07-10T03:28:47.394Z,18.50
2018-07-10T03:29:47.397Z,18.50
2018-07-10T03:30:47.400Z,18.33
2018-07-10T03:31:47.398Z,18.50
2018-07-10T03:32:47.399Z,18.52
2018-07-10T03:33:47.404Z,18.41
2018-07-10T03:34:47.406Z,18.43
2018-07-10T03:35:47.410Z,18.50
2018-07-10T03:36:47.407Z,18.41
2018-07-10T03:37:47.413Z,18.45
2018-07-10T03:38:47.413Z,18.47
2018-07-10T03:39:47.414Z,18.40
2018-07-10T03:40:47.425Z,18.37
2018-07-10T03:41:47.416Z,18.35
2018-07-10T03:42:47.419Z,18.33
2018-07-10T03:43:47.420Z,18.26
2018-07-10T03:44:47.564Z,18.23
2018-07-10T03:45:47.430Z,18.11
2018-07-10T03:46:47.432Z,17.98
2018-07-10T03:47:47.425Z,17.97
2018-07-10T03:48:47.429Z,17.89
2018-07-10T03:49:47.441Z,17.68
2018-07-10T03:50:47.434Z,17.57
2018-07-10T03:51:47.432Z,17.63
2018-07-10T03:52:47.437Z,17.52
2018-07-10T03:53:47.436Z,17.51
2018-07-10T03:54:47.437Z,17.44
2018-07-10T03:55:47.438Z,17.39
2018-07-10T03:56:47.439Z,17.36
2018-07-10T03:57:47.442Z,17.29
2018-07-10T03:58:47.442Z,17.29
2018-07-10T03:59:47.443Z,17.14
2018-07-10T04:00:47.446Z,16.99
2018-07-10T04:01:47.445Z,16.91
2018-07-10T04:02:47.450Z,16.90
2018-07-10T04:03:47.449Z,16.78
2018-07-10T04:04:47.449Z,16.68
2018-07-10T04:05:47.448Z,16.64
2018-07-10T04:06:47.452Z,16.66
2018-07-10T04:07:47.452Z,16.51
2018-07-10T04:08:47.450Z,16.54
2018-07-10T04:09:47.451Z,16.54
2018-07-10T04:10:47.455Z,16.47
2018-07-10T04:11:47.521Z,16.49
2018-07-10T04:12:47.455Z,16.47
2018-07-10T04:13:47.454Z,16.46
2018-07-10T04:14:47.453Z,16.53
2018-07-10T04:15:47.453Z,16.49
2018-07-10T04:16:47.454Z,16.51
2018-07-10T04:17:47.499Z,16.49
2018-07-10T04:18:47.492Z,16.41
2018-07-10T04:19:47.455Z,16.32
2018-07-10T04:20:47.459Z,16.39
2018-07-10T04:21:47.460Z,16.42
2018-07-10T04:22:47.462Z,16.46
2018-07-10T04:23:47.455Z,16.38
2018-07-10T04:24:47.457Z,16.23
2018-07-10T04:25:47.457Z,16.32
2018-07-10T04:26:47.457Z,16.35
2018-07-10T04:27:47.457Z,16.38
2018-07-10T04:28:47.496Z,16.33
2018-07-10T04:29:47.458Z,16.33
2018-07-10T04:30:47.458Z,16.28
2018-07-10T04:31:47.458Z,16.33
2018-07-10T04:32:47.460Z,16.29
2018-07-10T04:33:47.459Z,16.23
2018-07-10T04:34:47.461Z,16.23
2018-07-10T04:35:47.459Z,16.21
2018-07-10T04:36:47.463Z,16.16
2018-07-10T04:37:47.459Z,16.24
2018-07-10T04:38:47.460Z,16.32
2018-07-10T04:39:47.461Z,16.33
2018-07-10T04:40:47.465Z,16.38
2018-07-10T04:41:47.459Z,16.38
2018-07-10T04:42:47.460Z,16.29
2018-07-10T04:43:47.460Z,16.28
2018-07-10T04:44:47.461Z,16.31
2018-07-10T04:45:47.463Z,16.33
2018-07-10T04:46:47.462Z,16.31
2018-07-10T04:47:47.465Z,16.26
2018-07-10T04:48:47.470Z,16.12
2018-07-10T04:49:47.462Z,16.10
2018-07-10T04:50:47.470Z,15.92
2018-07-10T04:51:47.462Z,15.90
2018-07-10T04:52:47.460Z,15.88
2018-07-10T04:53:47.463Z,15.91
2018-07-10T04:54:47.462Z,15.98
2018-07-10T04:55:47.461Z,15.98
2018-07-10T04:56:47.460Z,16.04
2018-07-10T04:57:47.460Z,16.04
2018-07-10T04:58:47.461Z,16.02
2018-07-10T04:59:47.489Z,15.90
2018-07-10T05:00:47.461Z,15.90
2018-07-10T05:01:47.460Z,15.84
2018-07-10T05:02:47.461Z,15.79
2018-07-10T05:03:47.461Z,15.82
2018-07-10T05:04:47.459Z,15.77
2018-07-10T05:05:47.515Z,15.80
2018-07-10T05:06:47.461Z,15.88
2018-07-10T05:07:47.459Z,15.80
2018-07-10T05:08:47.460Z,15.77
2018-07-10T05:09:47.458Z,15.68
2018-07-10T05:10:47.458Z,15.64
2018-07-10T05:11:47.459Z,15.64
2018-07-10T05:12:47.458Z,15.55
2018-07-10T05:13:47.459Z,15.61
2018-07-10T05:14:47.455Z,15.61
2018-07-10T05:15:47.456Z,15.57
2018-07-10T05:16:47.456Z,15.44
2018-07-10T05:17:47.479Z,15.46
2018-07-10T05:18:47.455Z,15.47
2018-07-10T05:19:47.455Z,15.61
2018-07-10T05:20:47.454Z,15.51
2018-07-10T05:21:47.453Z,15.52
2018-07-10T05:22:47.462Z,15.58
2018-07-10T05:23:47.452Z,15.68
2018-07-10T05:24:47.452Z,15.70
2018-07-10T05:25:47.453Z,15.82
2018-07-10T05:26:47.452Z,15.79
2018-07-10T05:27:47.451Z,15.61
2018-07-10T05:28:47.474Z,15.61
2018-07-10T05:29:47.452Z,15.54
2018-07-10T05:30:47.451Z,15.52
2018-07-10T05:31:47.449Z,15.55
2018-07-10T05:32:47.451Z,15.52
2018-07-10T05:33:47.450Z,15.52
2018-07-10T05:34:47.459Z,15.46
2018-07-10T05:35:47.447Z,15.44
2018-07-10T05:36:47.447Z,15.46
2018-07-10T05:37:47.448Z,15.51
2018-07-10T05:38:47.446Z,15.54
2018-07-10T05:39:47.445Z,15.51
2018-07-10T05:40:47.448Z,15.47
2018-07-10T05:41:47.445Z,15.58
2018-07-10T05:42:47.447Z,15.61
2018-07-10T05:43:47.445Z,15.59
2018-07-10T05:44:47.443Z,15.58
2018-07-10T05:45:47.442Z,15.64
2018-07-10T05:46:47.443Z,15.58
2018-07-10T05:47:47.449Z,15.57
2018-07-10T05:48:47.440Z,15.59
2018-07-10T05:49:47.440Z,15.64
2018-07-10T05:50:47.441Z,15.62
2018-07-10T05:51:47.503Z,15.67
2018-07-10T05:52:47.438Z,15.76
2018-07-10T05:53:47.440Z,15.76
2018-07-10T05:54:47.441Z,15.79
2018-07-10T05:55:47.437Z,15.76
2018-07-10T05:56:47.437Z,15.77
2018-07-10T05:57:47.436Z,15.79
2018-07-10T05:58:47.452Z,15.76
2018-07-10T05:59:47.434Z,15.82
2018-07-10T06:00:47.436Z,15.79
2018-07-10T06:01:47.442Z,15.75
2018-07-10T06:02:47.434Z,15.75
2018-07-10T06:03:47.438Z,15.77
2018-07-10T06:04:47.437Z,15.86
2018-07-10T06:05:47.434Z,15.94
2018-07-10T06:06:47.435Z,15.83
2018-07-10T06:07:47.434Z,15.90
2018-07-10T06:08:47.433Z,15.95
2018-07-10T06:09:47.433Z,15.90
2018-07-10T06:10:47.436Z,15.95
2018-07-10T06:11:47.434Z,16.01
2018-07-10T06:12:47.435Z,15.95
2018-07-10T06:13:47.432Z,16.08
2018-07-10T06:14:47.435Z,16.10
2018-07-10T06:15:47.470Z,16.15
2018-07-10T06:16:47.432Z,16.15
2018-07-10T06:17:47.433Z,16.17
2018-07-10T06:18:47.435Z,16.10
2018-07-10T06:19:47.435Z,16.04
2018-07-10T06:20:47.437Z,15.95
2018-07-10T06:21:47.433Z,15.97
2018-07-10T06:22:47.432Z,15.92
2018-07-10T06:23:47.435Z,15.90
2018-07-10T06:24:47.432Z,15.92
2018-07-10T06:25:47.432Z,15.97
2018-07-10T06:26:47.433Z,15.95
2018-07-10T06:27:47.432Z,15.98
2018-07-10T06:28:47.431Z,15.98
2018-07-10T06:29:47.432Z,15.95
2018-07-10T06:30:47.435Z,15.92
2018-07-10T06:31:47.431Z,15.91
2018-07-10T06:32:47.432Z,15.92
2018-07-10T06:33:47.434Z,15.84
2018-07-10T06:34:47.435Z,15.82
2018-07-10T06:35:47.430Z,15.86
2018-07-10T06:36:47.431Z,15.77
2018-07-10T06:37:47.434Z,15.76
2018-07-10T06:38:47.431Z,15.80
2018-07-10T06:39:47.459Z,15.90
2018-07-10T06:40:47.438Z,15.80
2018-07-10T06:41:47.431Z,15.90
2018-07-10T06:42:47.430Z,15.92
2018-07-10T06:43:47.430Z,15.94
2018-07-10T06:44:47.430Z,15.94
2018-07-10T06:45:47.436Z,16.01
2018-07-10T06:46:47.433Z,16.04
2018-07-10T06:47:47.429Z,16.10
2018-07-10T06:48:47.562Z,16.10
2018-07-10T06:49:47.431Z,16.16
2018-07-10T06:50:47.431Z,16.15
2018-07-10T06:51:47.431Z,16.23
2018-07-10T06:52:47.514Z,16.31
2018-07-10T06:53:47.433Z,16.36
2018-07-10T06:54:47.431Z,16.33
2018-07-10T06:55:47.432Z,16.38
2018-07-10T06:56:47.434Z,16.36
2018-07-10T06:57:47.432Z,16.36
2018-07-10T06:58:47.433Z,16.38
2018-07-10T06:59:47.438Z,16.16
2018-07-10T07:00:47.480Z,16.32
2018-07-10T07:01:47.452Z,16.24
2018-07-10T07:02:47.449Z,16.36
2018-07-10T07:03:47.432Z,16.29
2018-07-10T07:04:47.433Z,16.43
2018-07-10T07:05:47.436Z,16.49
2018-07-10T07:06:47.433Z,16.39
2018-07-10T07:07:47.452Z,16.49
2018-07-10T07:08:47.434Z,16.43
2018-07-10T07:09:47.434Z,16.38
2018-07-10T07:10:47.436Z,16.41
2018-07-10T07:11:47.435Z,16.38
2018-07-10T07:12:47.439Z,16.43
2018-07-10T07:13:47.435Z,16.42
2018-07-10T07:14:47.437Z,16.41
2018-07-10T07:15:47.458Z,16.41
2018-07-10T07:16:47.437Z,16.38
2018-07-10T07:17:47.443Z,16.46
2018-07-10T07:18:47.437Z,16.43
2018-07-10T07:19:47.438Z,16.42
2018-07-10T07:20:47.440Z,16.47
2018-07-10T07:21:47.439Z,16.46
2018-07-10T07:22:47.440Z,16.47
2018-07-10T07:23:47.491Z,16.57
2018-07-10T07:24:47.439Z,16.58
2018-07-10T07:25:47.441Z,16.60
2018-07-10T07:26:47.446Z,16.60
2018-07-10T07:27:47.442Z,16.71
2018-07-10T07:28:47.444Z,16.72
2018-07-10T07:29:47.442Z,16.78
2018-07-10T07:30:47.448Z,16.78
2018-07-10T07:31:47.460Z,16.79
2018-07-10T07:32:47.443Z,16.83
2018-07-10T07:33:47.449Z,16.78
2018-07-10T07:34:47.446Z,16.90
2018-07-10T07:35:47.444Z,16.87
2018-07-10T07:36:47.450Z,16.99
2018-07-10T07:37:47.447Z,16.90
2018-07-10T07:38:47.447Z,16.96
2018-07-10T07:39:47.463Z,16.94
2018-07-10T07:40:47.448Z,16.96
2018-07-10T07:41:47.448Z,17.02
2018-07-10T07:42:47.472Z,16.99
2018-07-10T07:43:47.545Z,16.93
2018-07-10T07:44:47.454Z,16.89
2018-07-10T07:45:47.452Z,16.90
2018-07-10T07:46:47.453Z,16.86
2018-07-10T07:47:47.457Z,16.79
2018-07-10T07:48:47.453Z,16.78
2018-07-10T07:49:47.455Z,16.71
2018-07-10T07:50:47.482Z,16.72
2018-07-10T07:51:47.457Z,16.76
2018-07-10T07:52:47.464Z,16.81
2018-07-10T07:53:47.463Z,16.86
2018-07-10T07:54:47.459Z,16.91
2018-07-10T07:55:47.459Z,16.83
2018-07-10T07:56:47.458Z,16.90
2018-07-10T07:57:47.459Z,16.90
2018-07-10T07:58:47.460Z,16.78
2018-07-10T07:59:47.462Z,16.69
2018-07-10T08:00:47.460Z,16.66
2018-07-10T08:01:47.465Z,16.65
2018-07-10T08:02:48.548Z,16.65
2018-07-10T08:03:47.593Z,16.69
2018-07-10T08:04:47.467Z,16.68
2018-07-10T08:05:47.463Z,16.78
2018-07-10T08:06:47.466Z,16.69
2018-07-10T08:07:47.464Z,16.81
2018-07-10T08:08:47.465Z,16.91
2018-07-10T08:09:47.467Z,16.87
2018-07-10T08:10:47.467Z,16.97
2018-07-10T08:11:47.466Z,16.97
2018-07-10T08:12:47.466Z,16.99
2018-07-10T08:13:47.467Z,16.97
2018-07-10T08:14:47.470Z,16.97
2018-07-10T08:15:47.472Z,16.86
2018-07-10T08:16:47.471Z,16.90
2018-07-10T08:17:47.469Z,16.90
2018-07-10T08:18:47.474Z,16.91
2018-07-10T08:19:47.471Z,16.78
2018-07-10T08:20:47.472Z,16.90
2018-07-10T08:21:47.473Z,16.90
2018-07-10T08:22:47.477Z,17.01
2018-07-10T08:23:47.485Z,17.01
2018-07-10T08:24:47.522Z,17.11
2018-07-10T08:25:47.480Z,17.02
2018-07-10T08:26:47.481Z,17.01
2018-07-10T08:27:47.475Z,16.97
2018-07-10T08:28:47.477Z,16.97
2018-07-10T08:29:47.479Z,16.99
2018-07-10T08:30:47.480Z,17.01
2018-07-10T08:31:47.480Z,17.14
2018-07-10T08:32:47.482Z,17.04
2018-07-10T08:33:47.567Z,17.19
2018-07-10T08:34:47.482Z,17.23
2018-07-10T08:35:47.485Z,17.48
2018-07-10T08:36:47.483Z,17.57
2018-07-10T08:37:47.502Z,17.67
2018-07-10T08:38:47.750Z,17.72
2018-07-10T08:39:47.491Z,17.86
2018-07-10T08:40:47.486Z,18.04
2018-07-10T08:41:47.489Z,18.23
2018-07-10T08:42:47.498Z,18.49
2018-07-10T08:43:47.496Z,18.59
2018-07-10T08:44:47.498Z,18.74
2018-07-10T08:45:47.495Z,18.68
2018-07-10T08:46:47.508Z,18.77
2018-07-10T08:47:47.515Z,19.82
2018-07-10T08:48:47.498Z,21.02
2018-07-10T08:49:47.500Z,21.73
2018-07-10T08:50:47.564Z,22.66
2018-07-10T08:51:47.524Z,23.28
2018-07-10T08:52:47.509Z,24.02
2018-07-10T08:53:47.513Z,24.51
2018-07-10T08:54:47.515Z,24.88
2018-07-10T08:55:47.520Z,25.46
2018-07-10T08:56:47.528Z,25.85
2018-07-10T08:57:47.527Z,26.48
2018-07-10T08:58:47.532Z,26.62
2018-07-10T08:59:47.593Z,26.03
2018-07-10T09:00:47.545Z,25.33
2018-07-10T09:01:47.555Z,24.55
2018-07-10T09:02:47.553Z,23.87
2018-07-10T09:03:47.563Z,23.23
2018-07-10T09:04:47.563Z,22.72
2018-07-10T09:05:47.567Z,22.57
2018-07-10T09:06:47.577Z,22.78
2018-07-10T09:07:47.582Z,22.87
2018-07-10T09:08:47.591Z,22.80
2018-07-10T09:09:47.592Z,23.32
2018-07-10T09:10:47.594Z,24.11
2018-07-10T09:11:47.597Z,24.76
2018-07-10T09:12:47.603Z,25.43
2018-07-10T09:13:47.620Z,26.06
2018-07-10T09:14:47.613Z,26.75
2018-07-10T09:15:47.624Z,27.25
2018-07-10T09:16:47.626Z,27.51
2018-07-10T09:17:47.629Z,27.52
2018-07-10T09:18:47.636Z,27.67
2018-07-10T09:19:47.649Z,28.01
2018-07-10T09:20:47.648Z,28.27
2018-07-10T09:21:47.655Z,28.49
2018-07-10T09:22:47.664Z,28.66
2018-07-10T09:23:47.671Z,28.47
2018-07-10T09:24:47.686Z,28.48
2018-07-10T09:25:47.682Z,27.83
2018-07-10T09:26:47.698Z,27.05
2018-07-10T09:27:47.694Z,26.38
2018-07-10T09:28:47.702Z,26.29
2018-07-10T09:29:47.728Z,26.16
2018-07-10T09:30:47.716Z,27.08
2018-07-10T09:31:47.724Z,27.32
2018-07-10T09:32:47.732Z,27.25
2018-07-10T09:33:47.756Z,27.15
2018-07-10T09:34:47.747Z,27.12
2018-07-10T09:35:47.750Z,26.68
2018-07-10T09:36:47.756Z,27.10
2018-07-10T09:37:47.763Z,27.64
2018-07-10T09:38:47.772Z,27.45
2018-07-10T09:39:47.816Z,27.26
2018-07-10T09:40:47.789Z,27.02
2018-07-10T09:41:47.792Z,26.70
2018-07-10T09:42:47.800Z,26.45
2018-07-10T09:43:47.822Z,26.21
2018-07-10T09:44:47.813Z,26.00
2018-07-10T09:45:47.818Z,25.69
2018-07-10T09:46:47.825Z,25.28
2018-07-10T09:47:47.834Z,25.10
2018-07-10T09:48:47.842Z,24.76
2018-07-10T09:49:47.863Z,24.55
2018-07-10T09:50:47.861Z,24.45
2018-07-10T09:51:47.866Z,24.42
2018-07-10T09:52:47.863Z,24.08
2018-07-10T09:53:47.880Z,23.83
2018-07-10T09:54:47.964Z,23.55
2018-07-10T09:55:47.887Z,23.48
2018-07-10T09:56:47.887Z,23.44
2018-07-10T09:57:47.891Z,23.48
2018-07-10T09:58:47.898Z,23.48
2018-07-10T09:59:47.902Z,23.54
2018-07-10T10:00:47.908Z,23.46
2018-07-10T10:01:47.932Z,23.25
2018-07-10T10:02:47.919Z,23.03
2018-07-10T10:03:47.923Z,22.91
2018-07-10T10:04:47.930Z,22.90
2018-07-10T10:05:47.936Z,22.98
2018-07-10T10:06:47.940Z,22.85
2018-07-10T10:07:47.950Z,22.85
2018-07-10T10:08:47.952Z,22.83
2018-07-10T10:09:47.955Z,22.91
2018-07-10T10:10:47.963Z,22.85
2018-07-10T10:11:47.965Z,22.85
2018-07-10T10:12:47.974Z,22.91
2018-07-10T10:13:48.007Z,22.93
2018-07-10T10:14:47.980Z,22.99
2018-07-10T10:15:47.985Z,23.13
2018-07-10T10:16:47.991Z,23.08
2018-07-10T10:17:47.995Z,22.96
2018-07-10T10:18:48.001Z,22.84
2018-07-10T10:19:48.008Z,22.62
2018-07-10T10:20:48.009Z,22.51
2018-07-10T10:21:48.014Z,22.26
2018-07-10T10:22:48.019Z,22.14
2018-07-10T10:23:48.026Z,22.00
2018-07-10T10:24:48.031Z,21.99
2018-07-10T10:25:48.071Z,22.04
2018-07-10T10:26:48.039Z,22.02
2018-07-10T10:27:48.045Z,22.04
2018-07-10T10:28:48.126Z,22.20
2018-07-10T10:29:48.052Z,22.26
2018-07-10T10:30:48.056Z,22.18
2018-07-10T10:31:48.059Z,22.23
2018-07-10T10:32:48.064Z,22.29
2018-07-10T10:33:48.067Z,22.44
2018-07-10T10:34:48.073Z,22.50
2018-07-10T10:35:48.119Z,22.50
2018-07-10T10:36:48.081Z,22.66
2018-07-10T10:37:48.120Z,22.76
2018-07-10T10:38:48.089Z,22.99
2018-07-10T10:39:48.094Z,23.24
2018-07-10T10:40:48.099Z,23.28
2018-07-10T10:41:48.108Z,23.32
2018-07-10T10:42:48.109Z,23.36
2018-07-10T10:43:48.114Z,23.25
2018-07-10T10:44:48.117Z,23.23
2018-07-10T10:45:48.127Z,23.03
2018-07-10T10:46:48.127Z,23.06
2018-07-10T10:47:48.152Z,23.00
2018-07-10T10:48:48.141Z,22.88
2018-07-10T10:49:48.140Z,22.78
2018-07-10T10:50:48.147Z,22.68
2018-07-10T10:51:48.149Z,22.47
2018-07-10T10:52:48.157Z,22.28
2018-07-10T10:53:48.161Z,22.18
2018-07-10T10:54:48.215Z,22.17
2018-07-10T10:55:48.202Z,22.14
2018-07-10T10:56:48.175Z,22.11
2018-07-10T10:57:48.180Z,22.11
2018-07-10T10:58:48.182Z,22.07
2018-07-10T10:59:48.189Z,22.06
2018-07-10T11:00:48.191Z,21.98
2018-07-10T11:01:48.199Z,21.95
2018-07-10T11:02:48.200Z,21.96
2018-07-10T11:03:48.221Z,21.93
2018-07-10T11:04:48.209Z,21.70
2018-07-10T11:05:48.288Z,21.70
2018-07-10T11:06:48.223Z,21.61
2018-07-10T11:07:48.221Z,21.55
2018-07-10T11:08:48.224Z,21.62
2018-07-10T11:09:48.229Z,21.80
2018-07-10T11:10:48.235Z,21.89
2018-07-10T11:11:48.240Z,21.96
2018-07-10T11:12:48.240Z,22.08
2018-07-10T11:13:48.244Z,22.25
2018-07-10T11:14:48.272Z,22.32
2018-07-10T11:15:48.258Z,22.32
2018-07-10T11:16:48.259Z,22.41
2018-07-10T11:17:48.261Z,22.50
2018-07-10T11:18:48.273Z,22.36
2018-07-10T11:19:48.269Z,22.15
2018-07-10T11:20:48.276Z,22.08
2018-07-10T11:21:48.284Z,22.14
2018-07-10T11:22:48.281Z,22.04
2018-07-10T11:23:48.294Z,22.02
2018-07-10T11:24:48.291Z,21.99
2018-07-10T11:25:48.295Z,22.02
2018-07-10T11:26:48.307Z,21.92
2018-07-10T11:27:48.301Z,21.95
2018-07-10T11:28:48.308Z,21.98
2018-07-10T11:29:48.415Z,21.98
2018-07-10T11:30:48.316Z,22.02
2018-07-10T11:31:48.320Z,22.02
2018-07-10T11:32:48.323Z,22.04
2018-07-10T11:33:48.329Z,21.99
2018-07-10T11:34:48.336Z,22.04
2018-07-10T11:35:48.334Z,22.08
2018-07-10T11:36:48.358Z,22.17
2018-07-10T11:37:48.344Z,22.20
2018-07-10T11:38:48.368Z,22.30
2018-07-10T11:39:48.365Z,22.44
2018-07-10T11:40:48.365Z,22.65
2018-07-10T11:41:48.359Z,22.78
2018-07-10T11:42:48.367Z,22.99
2018-07-10T11:43:48.368Z,23.18
2018-07-10T11:44:48.373Z,23.34
2018-07-10T11:45:48.422Z,23.48
2018-07-10T11:46:48.385Z,23.63
2018-07-10T11:47:48.393Z,23.59
2018-07-10T11:48:48.406Z,23.61
2018-07-10T11:49:48.399Z,23.51
2018-07-10T11:50:48.410Z,23.46
2018-07-10T11:51:48.451Z,23.34
2018-07-10T11:52:48.421Z,23.37
2018-07-10T11:53:48.422Z,23.23
2018-07-10T11:54:48.420Z,23.27
2018-07-10T11:55:48.426Z,23.32
2018-07-10T11:56:48.429Z,23.24
2018-07-10T11:57:48.434Z,23.09
2018-07-10T11:58:48.443Z,23.00
2018-07-10T11:59:48.443Z,22.96
2018-07-10T12:00:48.461Z,22.75
2018-07-10T12:01:48.458Z,22.72
2018-07-10T12:02:48.466Z,22.69
2018-07-10T12:03:48.461Z,22.60
2018-07-10T12:04:48.470Z,22.65
2018-07-10T12:05:48.471Z,22.59
2018-07-10T12:06:48.475Z,22.47
2018-07-10T12:07:48.478Z,22.41
2018-07-10T12:08:48.524Z,22.26
2018-07-10T12:09:48.490Z,22.18
2018-07-10T12:10:48.504Z,22.23
2018-07-10T12:11:48.496Z,22.08
2018-07-10T12:12:48.502Z,22.02
2018-07-10T12:13:48.507Z,21.99
2018-07-10T12:14:48.510Z,21.96
2018-07-10T12:15:48.517Z,21.98
2018-07-10T12:16:48.518Z,21.93
2018-07-10T12:17:48.522Z,21.96
2018-07-10T12:18:48.528Z,21.95
2018-07-10T12:19:48.530Z,22.08
2018-07-10T12:20:48.604Z,22.17
2018-07-10T12:21:48.541Z,22.18
2018-07-10T12:22:48.546Z,22.44
2018-07-10T12:23:48.547Z,23.31
2018-07-10T12:24:48.551Z,24.16
2018-07-10T12:25:48.560Z,24.98
2018-07-10T12:26:48.564Z,25.50
2018-07-10T12:27:48.565Z,26.05
2018-07-10T12:28:48.572Z,26.56
2018-07-10T12:29:48.575Z,26.89
2018-07-10T12:30:48.581Z,27.73
2018-07-10T12:31:48.586Z,28.19
2018-07-10T12:32:48.597Z,28.86
2018-07-10T12:33:48.602Z,29.10
2018-07-10T12:34:48.658Z,29.32
2018-07-10T12:35:48.611Z,29.73
2018-07-10T12:36:48.622Z,29.93
2018-07-10T12:37:48.641Z,30.39
2018-07-10T12:38:48.635Z,30.59
2018-07-10T12:39:48.641Z,30.63
2018-07-10T12:40:48.648Z,30.68
2018-07-10T12:41:48.696Z,30.50
2018-07-10T12:42:48.667Z,30.62
2018-07-10T12:43:48.674Z,31.05
2018-07-10T12:44:48.686Z,31.51
2018-07-10T12:45:48.696Z,32.01
2018-07-10T12:46:48.703Z,32.16
2018-07-10T12:47:48.711Z,32.41
2018-07-10T12:48:48.722Z,32.60
2018-07-10T12:49:48.730Z,32.92
2018-07-10T12:50:48.741Z,33.15
2018-07-10T12:51:48.748Z,33.68
2018-07-10T12:52:48.759Z,34.13